Time;durP1;ratioP1;P1;durP2;ratioP2;P2;SDS_P1;SDS_P2;PMS_P1;PMS_P2;Temp;Humidity;BMP_temperature;BMP_pressure;BME280_temperature;BME280_humidity;BME280_pressure;Samples;Min_cycle;Max_cycle;Signal;HPM_P1;HPM_P2
2023/07/03 00:00:22;;;;;;;13.95;13.20;;;19.10;99.90;;;;;;5011028;28;20212;-64
2023/07/03 00:02:52;;;;;;;13.80;13.20;;;19.10;99.90;;;;;;5011366;28;20215;-63
2023/07/03 00:05:20;;;;;;;13.40;12.77;;;19.00;99.90;;;;;;5012110;28;20709;-64
2023/07/03 00:07:47;;;;;;;13.98;13.38;;;19.00;99.90;;;;;;5013100;28;20624;-64
2023/07/03 00:10:15;;;;;;;14.68;13.98;;;19.00;99.90;;;;;;5014739;28;20209;-65
2023/07/03 00:12:41;;;;;;;13.88;13.27;;;19.00;99.90;;;;;;5014580;28;20209;-64
2023/07/03 00:15:10;;;;;;;14.00;13.40;;;19.00;99.90;;;;;;5001986;28;20230;-64
2023/07/03 00:17:38;;;;;;;14.18;13.48;;;19.00;99.90;;;;;;4991876;28;20691;-65
2023/07/03 00:20:11;;;;;;;14.48;13.88;;;19.00;99.90;;;;;;4989827;28;20595;-64
2023/07/03 00:22:38;;;;;;;13.40;12.90;;;19.10;99.90;;;;;;4990021;28;20375;-64
2023/07/03 00:25:05;;;;;;;14.25;13.57;;;19.10;99.90;;;;;;4990475;28;20659;-65
2023/07/03 00:27:32;;;;;;;14.50;13.82;;;19.10;99.90;;;;;;4990681;28;20291;-63
2023/07/03 00:29:59;;;;;;;14.40;13.73;;;19.00;99.90;;;;;;4989274;28;20202;-65
2023/07/03 00:32:28;;;;;;;13.75;13.23;;;19.10;99.90;;;;;;4991533;28;20297;-65
2023/07/03 00:34:54;;;;;;;13.80;13.20;;;19.10;99.90;;;;;;4989583;28;20860;-65
2023/07/03 00:37:23;;;;;;;13.93;13.23;;;19.00;99.90;;;;;;4989800;28;20211;-64
2023/07/03 00:39:49;;;;;;;14.50;13.73;;;19.00;99.90;;;;;;4988279;28;20579;-64
2023/07/03 00:42:16;;;;;;;14.38;13.77;;;18.90;99.90;;;;;;4991262;28;20205;-64
2023/07/03 00:44:43;;;;;;;13.73;13.13;;;18.90;99.90;;;;;;4990985;28;20232;-64
2023/07/03 00:47:12;;;;;;;14.38;13.77;;;19.00;99.90;;;;;;4991071;28;20250;-65
2023/07/03 00:49:39;;;;;;;14.27;13.68;;;18.90;99.90;;;;;;4990535;28;20237;-65
2023/07/03 00:52:07;;;;;;;14.13;13.52;;;18.90;99.90;;;;;;4990727;28;20709;-64
2023/07/03 00:54:35;;;;;;;14.07;13.48;;;18.90;99.90;;;;;;4991134;28;20229;-64
2023/07/03 00:57:02;;;;;;;14.38;13.77;;;19.00;99.90;;;;;;4992828;28;20329;-65
2023/07/03 00:59:29;;;;;;;14.55;13.95;;;19.00;99.90;;;;;;5000393;28;20210;-64
2023/07/03 01:02:06;;;;;;;14.43;13.82;;;19.00;99.90;;;;;;4994007;28;20214;-64
2023/07/03 01:04:38;;;;;;;14.43;13.82;;;18.90;99.90;;;;;;4991818;28;20225;-64
2023/07/03 01:07:09;;;;;;;14.13;13.52;;;19.00;99.90;;;;;;5017501;22;20231;-65
2023/07/03 01:09:42;;;;;;;14.25;13.60;;;18.90;99.90;;;;;;5029089;28;20233;-67
2023/07/03 01:12:11;;;;;;;13.85;13.25;;;18.80;99.90;;;;;;5032040;28;20189;-65
2023/07/03 01:14:39;;;;;;;14.13;13.52;;;18.80;99.90;;;;;;5030719;28;20744;-65
2023/07/03 01:17:09;;;;;;;14.20;13.60;;;18.70;99.90;;;;;;5029866;28;20231;-64
2023/07/03 01:19:38;;;;;;;14.70;14.10;;;18.80;99.90;;;;;;5032242;28;20185;-64
2023/07/03 01:22:13;;;;;;;14.45;13.90;;;18.80;99.90;;;;;;5033764;28;20201;-65
2023/07/03 01:24:45;;;;;;;15.05;14.45;;;18.90;99.90;;;;;;5028998;28;20291;-66
2023/07/03 01:27:16;;;;;;;14.60;14.00;;;19.10;99.90;;;;;;5035081;28;20306;-67
2023/07/03 01:29:45;;;;;;;14.95;14.25;;;19.00;99.90;;;;;;5032507;28;20274;-66
2023/07/03 01:32:14;;;;;;;14.93;14.32;;;19.10;99.90;;;;;;5034412;28;20211;-65
2023/07/03 01:34:45;;;;;;;15.45;14.75;;;19.10;99.90;;;;;;5037112;28;20278;-64
2023/07/03 01:37:14;;;;;;;15.10;14.40;;;19.10;99.90;;;;;;5031207;28;20313;-67
2023/07/03 01:39:44;;;;;;;14.93;14.32;;;19.00;99.90;;;;;;5033625;28;20561;-65
2023/07/03 01:42:11;;;;;;;14.50;13.90;;;19.00;99.90;;;;;;5051592;28;20196;-65
2023/07/03 01:44:38;;;;;;;14.40;13.80;;;19.10;99.90;;;;;;5041208;28;20288;-66
2023/07/03 01:47:07;;;;;;;14.20;13.63;;;19.10;99.90;;;;;;5043228;28;20263;-64
2023/07/03 01:49:34;;;;;;;14.63;13.95;;;19.00;99.90;;;;;;5038546;28;20688;-65
2023/07/03 01:52:07;;;;;;;15.05;14.40;;;19.00;99.90;;;;;;5043371;28;20679;-65
2023/07/03 01:54:40;;;;;;;15.43;14.73;;;19.00;99.90;;;;;;5041756;28;20275;-67
2023/07/03 01:57:10;;;;;;;14.18;13.57;;;19.00;99.90;;;;;;5041337;28;20224;-65
2023/07/03 01:59:38;;;;;;;14.45;13.85;;;19.00;99.90;;;;;;5039043;28;20205;-66
2023/07/03 02:02:08;;;;;;;14.98;14.38;;;19.00;99.90;;;;;;5042774;28;20272;-65
2023/07/03 02:04:39;;;;;;;14.98;14.38;;;19.10;99.90;;;;;;5037451;28;20727;-65
2023/07/03 02:07:08;;;;;;;14.70;14.10;;;19.00;99.90;;;;;;5042449;28;20233;-66
2023/07/03 02:09:35;;;;;;;14.82;14.23;;;19.00;99.90;;;;;;5040809;28;20288;-66
2023/07/03 02:12:05;;;;;;;14.68;14.07;;;19.00;99.90;;;;;;5043076;28;20214;-65
2023/07/03 02:14:34;;;;;;;15.63;15.02;;;19.00;99.90;;;;;;5043976;28;20254;-66
2023/07/03 02:17:01;;;;;;;15.73;15.13;;;18.90;99.90;;;;;;5040448;28;20226;-67
2023/07/03 02:19:29;;;;;;;14.93;14.32;;;19.00;99.90;;;;;;5044889;28;20249;-64
2023/07/03 02:21:56;;;;;;;14.80;14.20;;;19.10;99.90;;;;;;5041713;28;20201;-64
2023/07/03 02:24:23;;;;;;;15.23;14.63;;;19.00;99.90;;;;;;5055087;28;20246;-66
2023/07/03 02:26:50;;;;;;;15.60;15.00;;;19.00;99.90;;;;;;5047416;28;20228;-63
2023/07/03 02:29:17;;;;;;;15.57;14.98;;;19.10;99.90;;;;;;5049060;28;20204;-67
2023/07/03 02:31:46;;;;;;;15.23;14.63;;;19.10;99.90;;;;;;5044315;28;20196;-64
2023/07/03 02:34:13;;;;;;;15.27;14.68;;;19.10;99.90;;;;;;5041835;28;20201;-65
2023/07/03 02:36:40;;;;;;;15.40;14.80;;;19.00;99.90;;;;;;5041491;28;20243;-66
2023/07/03 02:39:09;;;;;;;15.77;15.07;;;19.00;99.90;;;;;;5041310;28;20201;-65
2023/07/03 02:41:36;;;;;;;15.50;14.85;;;19.00;99.90;;;;;;5037235;28;20204;-66
2023/07/03 02:44:03;;;;;;;16.17;15.48;;;19.00;99.90;;;;;;5040837;28;20206;-65
2023/07/03 02:46:30;;;;;;;15.40;14.80;;;19.00;99.90;;;;;;5042269;28;20247;-65
2023/07/03 02:48:58;;;;;;;15.15;14.55;;;19.10;99.90;;;;;;5038777;28;20204;-67
2023/07/03 02:51:25;;;;;;;15.10;14.50;;;19.00;99.90;;;;;;5040578;28;20677;-66
2023/07/03 02:53:52;;;;;;;15.27;14.68;;;19.00;99.90;;;;;;5040868;28;20200;-65
2023/07/03 02:56:19;;;;;;;13.50;12.95;;;19.00;99.90;;;;;;5041752;28;20207;-66
2023/07/03 02:58:46;;;;;;;14.95;14.35;;;19.00;99.90;;;;;;5041564;28;20199;-66
2023/07/03 03:01:13;;;;;;;14.98;14.38;;;19.00;99.90;;;;;;5041903;28;20195;-66
2023/07/03 03:03:39;;;;;;;13.68;13.05;;;19.00;99.90;;;;;;5039863;28;20196;-65
2023/07/03 03:06:08;;;;;;;14.30;13.77;;;19.00;99.90;;;;;;5042158;28;20254;-65
2023/07/03 03:08:34;;;;;;;14.38;13.77;;;19.10;99.90;;;;;;5039798;28;20815;-65
2023/07/03 03:11:01;;;;;;;14.95;14.32;;;19.10;99.90;;;;;;5048191;28;20210;-64
2023/07/03 03:13:28;;;;;;;12.30;11.80;;;19.10;99.90;;;;;;5043929;28;20640;-66
2023/07/03 03:15:55;;;;;;;15.27;14.68;;;19.00;99.90;;;;;;5032221;28;20239;-65
2023/07/03 03:18:22;;;;;;;13.25;12.73;;;18.90;99.90;;;;;;5031772;28;20233;-66
2023/07/03 03:20:49;;;;;;;1524.60;772.70;;;18.90;99.90;;;;;;5031062;28;20209;-66
2023/07/03 03:23:17;;;;;;;12.43;11.93;;;18.90;99.90;;;;;;5031934;28;20200;-66
2023/07/03 03:25:44;;;;;;;13.82;13.23;;;19.00;99.90;;;;;;5031575;28;20292;-65
2023/07/03 03:28:11;;;;;;;26.77;25.75;;;18.90;99.90;;;;;;5031744;28;20229;-65
2023/07/03 03:30:39;;;;;;;24.35;23.25;;;18.90;99.90;;;;;;5031423;28;20219;-64
2023/07/03 03:33:05;;;;;;;121.38;111.95;;;18.90;99.90;;;;;;5031620;28;20234;-65
2023/07/03 03:35:32;;;;;;;22.20;21.38;;;19.00;99.90;;;;;;5032163;28;20315;-65
2023/07/03 03:37:59;;;;;;;20.67;19.87;;;18.90;99.90;;;;;;5030425;28;20578;-66
2023/07/03 03:40:28;;;;;;;21.98;21.13;;;19.00;99.90;;;;;;5029478;28;20204;-64
2023/07/03 03:42:54;;;;;;;20.60;19.70;;;19.00;99.90;;;;;;5029723;28;20212;-66
2023/07/03 03:45:21;;;;;;;19.38;18.67;;;19.00;99.90;;;;;;5030274;28;20208;-65
2023/07/03 03:47:48;;;;;;;19.58;18.80;;;19.10;99.90;;;;;;5030113;28;20224;-64
2023/07/03 03:50:15;;;;;;;21.92;21.13;;;19.10;99.90;;;;;;5029188;28;20693;-66
2023/07/03 03:52:42;;;;;;;24.42;23.45;;;19.10;99.90;;;;;;5029729;28;20208;-63
2023/07/03 03:55:09;;;;;;;21.88;21.08;;;19.10;99.90;;;;;;5030003;28;20224;-66
2023/07/03 03:57:37;;;;;;;19.73;19.02;;;19.10;99.90;;;;;;5030753;28;20805;-66
2023/07/03 04:00:15;;;;;;;19.75;18.95;;;19.10;99.90;;;;;;5029103;28;20204;-64
2023/07/03 04:02:42;;;;;;;22.20;21.30;;;19.10;99.90;;;;;;5029711;28;20748;-66
2023/07/03 04:05:09;;;;;;;23.45;22.52;;;19.20;99.90;;;;;;5030322;28;20204;-65
2023/07/03 04:07:36;;;;;;;21.80;20.90;;;19.30;99.90;;;;;;5030693;28;20232;-66
2023/07/03 04:10:04;;;;;;;24.98;23.98;;;19.40;99.90;;;;;;5029997;28;20295;-67
2023/07/03 04:12:31;;;;;;;23.13;22.23;;;19.40;99.90;;;;;;5031279;28;20586;-65
2023/07/03 04:14:59;;;;;;;23.67;22.77;;;19.40;99.90;;;;;;5031084;28;20317;-67
2023/07/03 04:17:26;;;;;;;23.15;22.25;;;19.50;99.90;;;;;;5033199;28;20307;-65
2023/07/03 04:19:53;;;;;;;24.35;23.45;;;19.60;99.90;;;;;;5029275;28;20214;-64
2023/07/03 04:22:20;;;;;;;23.20;22.30;;;19.70;99.90;;;;;;5029492;28;20214;-66
2023/07/03 04:24:46;;;;;;;22.45;21.63;;;19.70;99.90;;;;;;5029752;28;20197;-65
2023/07/03 04:27:14;;;;;;;22.90;22.08;;;19.70;99.90;;;;;;5029706;28;20256;-65
2023/07/03 04:29:41;;;;;;;22.65;21.85;;;19.80;99.90;;;;;;5029351;28;20207;-65
2023/07/03 04:32:10;;;;;;;23.52;22.45;;;19.90;99.90;;;;;;5029304;28;20729;-66
2023/07/03 04:34:37;;;;;;;20.70;19.90;;;19.90;99.90;;;;;;5035768;28;20235;-57
2023/07/03 04:37:05;;;;;;;20.63;19.83;;;20.00;99.90;;;;;;5030438;28;20278;-58
2023/07/03 04:39:31;;;;;;;21.88;21.08;;;20.20;99.90;;;;;;5029705;28;20675;-59
2023/07/03 04:42:00;;;;;;;23.65;22.75;;;20.50;99.90;;;;;;5028607;28;20211;-58
2023/07/03 04:44:27;;;;;;;22.63;21.75;;;20.60;99.90;;;;;;5038169;28;20207;-59
2023/07/03 04:46:55;;;;;;;23.55;22.65;;;20.80;99.90;;;;;;5050951;28;20699;-57
2023/07/03 04:49:26;;;;;;;22.77;21.88;;;20.90;99.90;;;;;;5047546;28;20281;-58
2023/07/03 04:51:54;;;;;;;22.95;22.15;;;21.00;99.90;;;;;;5051046;28;20616;-58
2023/07/03 04:54:21;;;;;;;23.25;22.35;;;20.90;99.90;;;;;;5051732;28;20211;-58
2023/07/03 04:56:48;;;;;;;22.92;22.02;;;21.00;99.90;;;;;;5043235;28;20242;-57
2023/07/03 04:59:15;;;;;;;23.63;22.75;;;21.00;99.90;;;;;;5032887;28;20226;-63
2023/07/03 05:01:43;;;;;;;23.90;23.00;;;21.10;99.90;;;;;;5033111;28;20205;-66
2023/07/03 05:04:10;;;;;;;23.85;22.95;;;21.00;99.90;;;;;;5033213;28;20211;-65
2023/07/03 05:06:39;;;;;;;24.63;23.65;;;21.00;99.90;;;;;;5032871;28;20228;-66
2023/07/03 05:09:08;;;;;;;24.98;24.08;;;20.90;99.90;;;;;;5032745;28;20208;-65
2023/07/03 05:11:35;;;;;;;25.08;24.17;;;20.90;99.90;;;;;;5033367;28;20639;-64
2023/07/03 05:14:02;;;;;;;25.33;24.33;;;20.80;99.90;;;;;;5032803;28;20204;-67
2023/07/03 05:16:29;;;;;;;25.42;24.52;;;20.80;99.90;;;;;;5033138;28;20228;-66
2023/07/03 05:18:56;;;;;;;26.23;25.23;;;20.80;99.90;;;;;;5033294;28;20243;-65
2023/07/03 05:21:23;;;;;;;24.65;23.65;;;20.80;99.90;;;;;;5032289;28;20201;-64
2023/07/03 05:23:51;;;;;;;25.45;24.52;;;20.80;99.90;;;;;;5031911;28;20574;-65
2023/07/03 05:26:18;;;;;;;26.33;25.33;;;20.80;99.90;;;;;;5030370;28;20211;-65
2023/07/03 05:28:45;;;;;;;25.98;24.98;;;20.80;99.90;;;;;;5029305;28;20197;-66
2023/07/03 05:31:12;;;;;;;26.33;25.33;;;20.80;99.90;;;;;;5023965;28;20243;-65
2023/07/03 05:33:39;;;;;;;25.23;24.30;;;20.80;99.90;;;;;;5026972;28;20216;-63
2023/07/03 05:36:06;;;;;;;24.77;23.88;;;20.80;99.90;;;;;;5038621;28;20232;-62
2023/07/03 05:38:34;;;;;;;24.63;23.73;;;20.80;99.90;;;;;;5047320;28;20224;-64
2023/07/03 05:41:02;;;;;;;23.80;22.92;;;20.90;99.90;;;;;;5043946;28;20208;-63
2023/07/03 05:43:29;;;;;;;24.92;23.95;;;20.80;99.90;;;;;;5044403;28;20264;-64
2023/07/03 05:45:56;;;;;;;24.88;23.90;;;20.90;99.90;;;;;;5035212;28;20201;-65
2023/07/03 05:48:24;;;;;;;24.50;23.55;;;21.00;99.90;;;;;;5040806;28;20387;-66
2023/07/03 05:50:51;;;;;;;24.65;23.65;;;20.90;99.90;;;;;;5041183;28;20216;-64
2023/07/03 05:53:20;;;;;;;25.15;24.25;;;20.90;99.90;;;;;;5041896;28;20840;-65
2023/07/03 05:55:54;;;;;;;25.48;24.52;;;20.90;99.90;;;;;;5043709;28;20292;-65
2023/07/03 05:58:23;;;;;;;25.83;24.85;;;20.80;99.90;;;;;;5044901;28;20235;-64
2023/07/03 06:00:50;;;;;;;24.38;23.48;;;20.80;99.90;;;;;;5043800;28;20205;-64
2023/07/03 06:03:17;;;;;;;25.77;24.77;;;20.80;99.90;;;;;;5045824;28;20289;-66
2023/07/03 06:05:44;;;;;;;25.23;24.23;;;20.70;99.90;;;;;;5044853;28;20204;-65
2023/07/03 06:08:11;;;;;;;26.48;25.45;;;20.70;99.90;;;;;;5042337;28;20260;-66
2023/07/03 06:10:38;;;;;;;26.60;25.50;;;20.60;99.90;;;;;;5030986;28;20673;-65
2023/07/03 06:13:05;;;;;;;25.95;24.88;;;20.70;99.90;;;;;;5032402;28;20739;-65
2023/07/03 06:15:34;;;;;;;26.60;25.60;;;20.60;99.90;;;;;;5036968;28;20220;-66
2023/07/03 06:18:02;;;;;;;25.80;24.85;;;20.70;99.90;;;;;;5031869;28;20723;-65
2023/07/03 06:20:29;;;;;;;24.75;23.85;;;20.70;99.90;;;;;;5030932;28;20208;-65
2023/07/03 06:22:56;;;;;;;25.20;24.20;;;20.80;99.90;;;;;;5032209;28;20211;-64
2023/07/03 06:25:23;;;;;;;25.50;24.52;;;20.70;99.90;;;;;;5031825;28;20557;-66
2023/07/03 06:27:50;;;;;;;25.23;24.33;;;20.70;99.90;;;;;;5032296;28;20235;-65
2023/07/03 06:30:17;;;;;;;24.67;23.77;;;20.70;99.90;;;;;;5032114;28;20209;-66
2023/07/03 06:32:45;;;;;;;25.20;24.30;;;20.80;99.90;;;;;;5032467;28;20247;-64
2023/07/03 06:35:12;;;;;;;24.50;23.60;;;20.80;99.90;;;;;;5031799;28;20225;-66
2023/07/03 06:37:39;;;;;;;25.45;24.40;;;20.90;99.90;;;;;;5031944;28;20630;-65
2023/07/03 06:40:09;;;;;;;25.65;24.67;;;20.90;99.90;;;;;;5031483;28;20211;-67
2023/07/03 06:42:36;;;;;;;25.17;24.27;;;20.90;99.90;;;;;;5031588;28;20209;-66
2023/07/03 06:45:03;;;;;;;24.63;23.63;;;20.80;99.90;;;;;;5032331;28;20292;-69
2023/07/03 06:47:30;;;;;;;25.08;24.10;;;20.90;99.90;;;;;;5031706;28;20800;-66
2023/07/03 06:49:58;;;;;;;23.80;22.80;;;20.90;99.90;;;;;;5031157;28;20205;-65
2023/07/03 06:52:25;;;;;;;23.48;22.58;;;21.00;99.90;;;;;;5031825;28;20291;-64
2023/07/03 06:54:52;;;;;;;23.33;22.42;;;21.00;99.90;;;;;;5031934;28;20208;-64
2023/07/03 06:57:19;;;;;;;22.05;21.15;;;21.10;99.90;;;;;;5032365;28;20227;-65
2023/07/03 06:59:45;;;;;;;22.17;21.00;;;21.00;99.90;;;;;;5030062;28;20266;-65
2023/07/03 07:02:12;;;;;;;23.63;22.73;;;21.10;99.90;;;;;;5032791;28;20212;-66
2023/07/03 07:04:39;;;;;;;18.45;17.75;;;21.10;99.90;;;;;;5032550;28;20726;-65
2023/07/03 07:07:07;;;;;;;17.92;17.23;;;21.10;99.90;;;;;;5032910;28;20238;-66
2023/07/03 07:09:35;;;;;;;18.55;17.85;;;21.20;99.90;;;;;;5043473;22;20601;-62
2023/07/03 07:12:01;;;;;;;18.65;17.95;;;21.30;99.90;;;;;;5014466;28;20239;-63
2023/07/03 07:14:28;;;;;;;18.15;17.45;;;21.30;99.90;;;;;;5012591;28;20296;-63
2023/07/03 07:16:55;;;;;;;18.85;18.13;;;21.40;99.90;;;;;;5011413;28;20252;-63
2023/07/03 07:19:22;;;;;;;19.58;18.77;;;21.40;99.90;;;;;;5011915;28;20229;-62
2023/07/03 07:21:49;;;;;;;19.30;18.50;;;21.50;99.90;;;;;;5014054;28;20667;-62
2023/07/03 07:24:20;;;;;;;19.52;18.73;;;21.40;99.90;;;;;;5015262;28;20232;-61
2023/07/03 07:26:48;;;;;;;20.40;19.60;;;21.50;99.90;;;;;;5015851;28;20288;-61
2023/07/03 07:29:14;;;;;;;22.13;21.33;;;21.50;99.90;;;;;;5011951;28;20235;-63
2023/07/03 07:31:41;;;;;;;20.50;19.65;;;21.60;99.90;;;;;;5011114;28;20213;-62
2023/07/03 07:34:10;;;;;;;21.48;20.58;;;21.70;99.90;;;;;;5011553;28;20205;-61
2023/07/03 07:36:39;;;;;;;20.65;19.85;;;21.80;99.90;;;;;;5010966;28;20614;-62
2023/07/03 07:39:06;;;;;;;21.63;20.73;;;21.90;99.90;;;;;;5009994;28;20225;-64
2023/07/03 07:41:35;;;;;;;21.00;20.20;;;22.00;99.90;;;;;;5010647;28;20209;-63
2023/07/03 07:44:02;;;;;;;20.40;19.50;;;22.00;99.90;;;;;;5010390;28;20217;-64
2023/07/03 07:46:30;;;;;;;20.88;19.98;;;22.00;99.90;;;;;;5011418;28;20198;-64
2023/07/03 07:48:58;;;;;;;21.02;20.23;;;22.00;99.90;;;;;;5010415;28;20224;-62
2023/07/03 07:51:25;;;;;;;20.55;19.75;;;22.20;99.90;;;;;;5009857;28;20205;-62
2023/07/03 07:53:52;;;;;;;21.50;20.60;;;22.40;99.90;;;;;;5010409;28;20287;-63
2023/07/03 07:56:22;;;;;;;21.48;20.67;;;22.40;99.90;;;;;;5009178;28;20312;-63
2023/07/03 07:58:51;;;;;;;21.60;20.50;;;22.60;99.90;;;;;;5011362;28;20638;-62
2023/07/03 08:01:18;;;;;;;21.58;20.67;;;22.80;99.90;;;;;;5011103;28;20224;-62
2023/07/03 08:03:45;;;;;;;21.98;21.10;;;23.00;99.90;;;;;;5012156;28;20299;-63
2023/07/03 08:06:14;;;;;;;21.17;20.27;;;23.30;99.90;;;;;;5011840;28;20202;-63
2023/07/03 08:08:42;;;;;;;21.67;20.77;;;23.30;99.90;;;;;;5011432;28;20249;-62
2023/07/03 08:11:10;;;;;;;21.20;20.40;;;23.40;99.90;;;;;;5010746;28;20212;-63
2023/07/03 08:13:39;;;;;;;20.85;20.05;;;23.20;99.90;;;;;;5011599;28;20205;-63
2023/07/03 08:16:08;;;;;;;19.92;19.15;;;23.20;99.90;;;;;;5011691;28;20225;-64
2023/07/03 08:18:35;;;;;;;20.50;19.70;;;23.20;99.90;;;;;;5011691;28;20602;-63
2023/07/03 08:21:02;;;;;;;20.40;19.60;;;23.10;99.90;;;;;;5011255;28;20300;-64
2023/07/03 08:23:31;;;;;;;21.40;20.50;;;23.30;99.90;;;;;;5012004;28;20741;-62
2023/07/03 08:26:00;;;;;;;21.35;20.45;;;23.50;99.90;;;;;;5011811;28;20300;-62
2023/07/03 08:28:27;;;;;;;21.05;20.25;;;23.40;99.90;;;;;;5012319;28;20225;-63
2023/07/03 08:30:54;;;;;;;21.65;20.75;;;23.20;99.90;;;;;;5013777;28;20680;-63
2023/07/03 08:33:23;;;;;;;21.45;20.65;;;23.10;99.90;;;;;;5015109;28;20205;-63
2023/07/03 08:35:49;;;;;;;20.60;19.80;;;23.10;99.90;;;;;;5014320;28;20297;-62
2023/07/03 08:38:16;;;;;;;20.40;19.60;;;23.10;99.90;;;;;;5013943;28;20225;-61
2023/07/03 08:40:44;;;;;;;19.88;19.08;;;23.00;99.90;;;;;;5013421;28;20208;-63
2023/07/03 08:43:14;;;;;;;19.63;18.83;;;22.80;99.90;;;;;;5014370;28;20212;-62
2023/07/03 08:45:43;;;;;;;21.83;21.02;;;22.70;99.90;;;;;;5014196;28;20208;-64
2023/07/03 08:48:14;;;;;;;21.40;20.55;;;23.00;99.90;;;;;;5014224;28;20239;-64
2023/07/03 08:50:47;;;;;;;20.80;20.00;;;23.40;99.90;;;;;;5012873;28;20211;-63
2023/07/03 08:53:18;;;;;;;21.50;20.63;;;23.40;99.90;;;;;;5011599;28;20212;-62
2023/07/03 08:55:48;;;;;;;19.95;19.15;;;23.70;99.90;;;;;;5012911;28;20231;-62
2023/07/03 08:58:15;;;;;;;19.48;18.67;;;23.80;99.90;;;;;;5012695;28;20233;-63
2023/07/03 09:00:51;;;;;;;19.38;18.58;;;23.90;99.90;;;;;;5012500;28;20288;-62
2023/07/03 09:03:25;;;;;;;18.63;17.92;;;23.90;99.90;;;;;;5013882;28;20204;-64
2023/07/03 09:06:01;;;;;;;20.00;19.20;;;24.00;99.90;;;;;;5014076;28;20203;-61
2023/07/03 09:08:54;;;;;;;18.65;17.95;;;24.10;99.90;;;;;;5013386;28;20237;-61
2023/07/03 09:11:22;;;;;;;19.23;18.45;;;24.10;99.90;;;;;;5012682;28;20683;-63
2023/07/03 09:13:53;;;;;;;24.55;23.55;;;23.90;99.90;;;;;;5013800;28;20290;-64
2023/07/03 09:16:22;;;;;;;24.02;23.13;;;23.90;99.90;;;;;;5013452;28;20248;-64
2023/07/03 09:18:54;;;;;;;24.83;23.90;;;23.80;99.90;;;;;;5013593;28;20221;-62
2023/07/03 09:21:24;;;;;;;24.30;23.40;;;23.70;99.90;;;;;;5017760;28;20292;-62
2023/07/03 09:23:58;;;;;;;25.05;24.05;;;23.70;99.90;;;;;;5014243;28;20888;-64
2023/07/03 09:26:34;;;;;;;24.38;23.48;;;23.80;99.90;;;;;;5013349;28;20201;-65
2023/07/03 09:29:01;;;;;;;24.17;23.27;;;23.80;99.90;;;;;;5013398;28;20721;-62
2023/07/03 09:31:28;;;;;;;26.88;25.88;;;23.70;99.90;;;;;;5013971;28;20292;-65
2023/07/03 09:33:55;;;;;;;24.88;23.98;;;23.70;99.90;;;;;;5014074;28;20221;-62
2023/07/03 09:36:27;;;;;;;25.58;24.58;;;23.60;99.90;;;;;;5014119;28;20227;-63
2023/07/03 09:38:53;;;;;;;48.25;46.25;;;23.40;99.90;;;;;;5011596;28;20237;-63
2023/07/03 09:41:29;;;;;;;25.50;24.50;;;23.40;99.90;;;;;;5012425;28;20650;-63
2023/07/03 09:43:56;;;;;;;28.25;27.15;;;23.30;99.90;;;;;;5013572;28;20228;-61
2023/07/03 09:46:24;;;;;;;24.48;23.58;;;23.30;99.90;;;;;;5013214;28;20240;-64
2023/07/03 09:48:52;;;;;;;26.25;25.25;;;23.20;99.90;;;;;;5012770;28;20222;-65
2023/07/03 09:51:26;;;;;;;24.85;23.95;;;23.20;99.90;;;;;;5011616;28;20663;-62
2023/07/03 09:53:56;;;;;;;26.33;25.33;;;23.20;99.90;;;;;;5012775;28;20623;-63
2023/07/03 09:56:25;;;;;;;31.95;30.75;;;23.20;99.90;;;;;;5012660;28;20229;-63
2023/07/03 09:58:55;;;;;;;27.65;26.55;;;23.30;99.90;;;;;;5012564;28;20269;-62
2023/07/03 10:01:24;;;;;;;26.67;25.67;;;23.30;99.90;;;;;;5011629;28;20213;-63
2023/07/03 10:04:03;;;;;;;32.10;30.83;;;23.50;99.90;;;;;;5012619;28;20201;-62
2023/07/03 10:06:31;;;;;;;23.88;22.98;;;23.60;99.90;;;;;;5012765;28;20239;-63
2023/07/03 10:09:02;;;;;;;24.92;24.02;;;23.60;99.90;;;;;;5011566;28;20906;-62
2023/07/03 10:11:37;;;;;;;25.15;24.15;;;23.60;99.90;;;;;;5011680;28;20670;-63
2023/07/03 10:14:07;;;;;;;24.40;23.40;;;23.80;99.90;;;;;;5010995;28;20201;-63
2023/07/03 10:16:35;;;;;;;22.83;22.02;;;23.90;99.90;;;;;;5012958;28;20737;-62
2023/07/03 10:19:03;;;;;;;23.65;22.65;;;23.90;99.90;;;;;;5012340;28;20235;-62
2023/07/03 10:21:33;;;;;;;22.08;21.27;;;23.90;99.90;;;;;;5012418;28;20208;-64
2023/07/03 10:24:02;;;;;;;23.20;22.30;;;23.90;99.90;;;;;;5012983;28;20213;-64
2023/07/03 10:26:33;;;;;;;21.65;20.85;;;23.70;99.90;;;;;;5012265;28;20216;-62
2023/07/03 10:29:09;;;;;;;21.02;20.02;;;23.60;99.90;;;;;;5012200;28;20236;-62
2023/07/03 10:31:42;;;;;;;23.05;22.15;;;23.50;99.90;;;;;;5012166;28;20240;-64
2023/07/03 10:34:17;;;;;;;24.30;23.30;;;23.50;99.90;;;;;;5011436;28;20608;-62
2023/07/03 10:36:49;;;;;;;22.90;21.90;;;23.70;99.90;;;;;;5011673;28;20231;-64
2023/07/03 10:39:21;;;;;;;23.08;22.13;;;23.80;99.90;;;;;;5010604;28;20229;-62
2023/07/03 10:41:52;;;;;;;17.88;17.17;;;23.70;99.90;;;;;;5011622;28;20209;-63
2023/07/03 10:44:25;;;;;;;19.13;18.33;;;23.90;99.90;;;;;;5011751;28;20296;-64
2023/07/03 10:46:59;;;;;;;17.15;16.38;;;24.10;99.90;;;;;;5011461;28;20204;-64
2023/07/03 10:49:29;;;;;;;17.05;16.35;;;24.30;99.90;;;;;;5010379;28;20711;-63
2023/07/03 10:52:10;;;;;;;16.13;15.52;;;24.50;99.90;;;;;;5011031;28;20956;-62
2023/07/03 10:54:42;;;;;;;16.23;15.52;;;24.70;99.90;;;;;;5011980;28;20231;-62
2023/07/03 10:57:16;;;;;;;16.13;15.43;;;24.70;99.90;;;;;;5012510;28;20717;-64
2023/07/03 10:59:49;;;;;;;15.90;15.20;;;24.80;99.90;;;;;;5011703;28;20229;-63
2023/07/03 11:02:30;;;;;;;16.88;16.17;;;24.70;99.90;;;;;;5010911;28;20209;-63
2023/07/03 11:05:07;;;;;;;16.38;15.68;;;24.50;99.90;;;;;;5011193;28;20213;-63
2023/07/03 11:07:45;;;;;;;20.55;19.73;;;24.70;99.90;;;;;;5011298;28;20258;-63
2023/07/03 11:10:23;;;;;;;15.57;14.98;;;24.70;99.90;;;;;;5008033;28;20241;-65
2023/07/03 11:12:55;;;;;;;15.55;14.95;;;24.70;99.90;;;;;;5011363;28;20209;-64
2023/07/03 11:15:32;;;;;;;17.08;16.38;;;24.90;99.90;;;;;;5011585;28;20217;-61
2023/07/03 11:18:16;;;;;;;16.58;15.98;;;25.00;99.90;;;;;;5011041;28;20229;-62
2023/07/03 11:20:50;;;;;;;17.20;16.50;;;25.40;99.90;;;;;;5009781;28;20766;-62
2023/07/03 11:23:26;;;;;;;16.13;15.52;;;25.80;99.90;;;;;;5011256;28;20206;-64
2023/07/03 11:26:01;;;;;;;15.75;15.15;;;26.10;99.90;;;;;;5011556;28;20212;-63
2023/07/03 11:28:32;;;;;;;16.40;15.70;;;26.10;99.90;;;;;;5011081;28;20605;-63
2023/07/03 11:31:02;;;;;;;15.73;15.13;;;26.00;99.90;;;;;;5010123;28;20208;-62
2023/07/03 11:33:30;;;;;;;15.13;14.52;;;26.00;99.90;;;;;;5011146;28;20225;-63
2023/07/03 11:35:59;;;;;;;15.98;15.38;;;25.90;99.90;;;;;;5011747;28;20288;-64
2023/07/03 11:38:28;;;;;;;15.23;14.65;;;25.90;99.90;;;;;;5011424;28;20235;-63
2023/07/03 11:41:07;;;;;;;16.05;15.45;;;26.00;99.90;;;;;;5010881;28;20675;-64
2023/07/03 11:43:41;;;;;;;16.08;15.48;;;26.10;99.90;;;;;;5011662;28;20205;-63
2023/07/03 11:46:19;;;;;;;15.98;15.38;;;26.20;99.90;;;;;;5012294;28;20264;-65
2023/07/03 11:48:49;;;;;;;15.80;15.20;;;26.20;99.90;;;;;;5012042;28;20229;-63
2023/07/03 11:51:18;;;;;;;16.05;15.45;;;26.20;99.90;;;;;;5011127;28;20209;-63
2023/07/03 11:53:50;;;;;;;16.20;15.60;;;26.40;99.90;;;;;;5011981;28;20209;-63
2023/07/03 11:56:50;;;;;;;16.40;15.80;;;26.20;99.90;;;;;;5012476;28;20235;-64
2023/07/03 11:59:30;;;;;;;17.15;16.55;;;26.40;99.90;;;;;;5012119;28;20324;-64
2023/07/03 12:02:45;;;;;;;18.73;18.02;;;26.70;99.90;;;;;;5011700;28;20300;-63
2023/07/03 12:05:27;;;;;;;19.77;19.02;;;26.90;99.90;;;;;;5010365;28;20201;-62
2023/07/03 12:07:54;;;;;;;18.58;17.88;;;27.10;99.90;;;;;;5011216;28;20205;-62
2023/07/03 12:10:57;;;;;;;17.80;17.17;;;27.10;99.90;;;;;;5010839;28;20253;-64
2023/07/03 12:13:36;;;;;;;18.17;17.52;;;27.00;99.90;;;;;;5011123;28;20248;-62
2023/07/03 12:16:05;;;;;;;18.77;18.08;;;26.70;99.90;;;;;;5011051;28;20213;-62
2023/07/03 12:18:33;;;;;;;19.17;18.48;;;26.60;99.90;;;;;;5010959;28;20250;-62
2023/07/03 12:21:02;;;;;;;19.23;18.52;;;26.70;99.90;;;;;;5009901;28;20209;-63
2023/07/03 12:23:37;;;;;;;18.45;17.75;;;26.80;99.90;;;;;;5011885;28;20737;-64
2023/07/03 12:26:07;;;;;;;18.45;17.75;;;26.70;99.90;;;;;;5012028;28;20208;-63
2023/07/03 12:28:34;;;;;;;18.05;17.40;;;26.40;99.90;;;;;;5013049;28;20436;-63
2023/07/03 12:31:12;;;;;;;18.77;18.08;;;26.20;99.90;;;;;;5011828;28;20229;-63
2023/07/03 12:33:51;;;;;;;19.15;18.45;;;26.20;99.90;;;;;;5016001;28;20612;-63
2023/07/03 12:36:23;;;;;;;18.48;17.80;;;26.10;99.90;;;;;;5015979;28;20216;-63